»·PEaware :: N5656Y KBUR-KLAS

N5656Y :: KBUR-KLAS

FLIGHT INFORMATION

Flight Status: Arrived
Operator: Privately registered:
United States
More flights under this callsign
Pilot: Anonymous 20359 (20359)
Aircraft: CESSNA 172 SKYHAWK
(C172)
More flights by this aircraft type
Origin: KBUR Bob Hope-Burbank
United States
Destination: KLAS McCarran Intl
United States
More flights between these airports :: More routes between these airports
Route: +VNY3 DAG CRESO4
File this flight plan on PilotEdge
Remarks:
Altitude:
(Current/Filed)
7,000ft
Speed:
(Current/Filed)
120kts
Departed: 26-Sep-18 08:29 AM
Arrived: 26-Sep-18 10:49 AM
Distance/Time
Traveled:
193nm/2:20
Distance/Time
To Go:
Arrived

Flight Plot

Page will automatically refresh every two minutes.

Flight plan parsing failed; only flown route is shown


Map Options




Map Legend


Flown Route
Filed Route
Departure Airport
Arrival Airport
Navaid (VOR, NDB)
Fix

Horizontal Profiles

Position Reports

Time Latitude Longitude Heading Altitude Ground
Speed
26-Sep-18 08:16 34.196338 -118.367565 358 721ft 0kts
26-Sep-18 08:17 34.196338 -118.367565 358 721ft 0kts
26-Sep-18 08:18 34.196338 -118.367565 358 721ft 0kts
26-Sep-18 08:19 34.196338 -118.367565 358 721ft 0kts
26-Sep-18 08:20 34.196338 -118.367565 358 721ft 0kts
26-Sep-18 08:21 34.196338 -118.367565 358 721ft 0kts
26-Sep-18 08:22 34.196338 -118.367565 358 721ft 0kts
26-Sep-18 08:23 34.196338 -118.367565 358 721ft 0kts
26-Sep-18 08:24 34.196338 -118.367565 358 721ft 0kts
26-Sep-18 08:25 34.196338 -118.367565 358 721ft 0kts
26-Sep-18 08:26 34.196338 -118.367565 358 721ft 0kts
26-Sep-18 08:27 34.196338 -118.367565 358 721ft 0kts
26-Sep-18 08:28 34.196338 -118.367565 358 721ft 0kts
26-Sep-18 08:29 34.197080 -118.368971 336 724ft 0kts
26-Sep-18 08:30 34.197080 -118.368971 336 724ft 0kts
26-Sep-18 08:31 34.197510 -118.358451 96 888ft 86kts
26-Sep-18 08:32 34.184559 -118.343174 214 1845ft 91kts
26-Sep-18 08:33 34.167659 -118.363869 226 2810ft 89kts
26-Sep-18 08:34 34.151061 -118.384455 226 3804ft 82kts
26-Sep-18 08:35 34.150944 -118.413491 284 4253ft 119kts
26-Sep-18 08:36 34.158596 -118.455350 285 4251ft 130kts
26-Sep-18 08:37 34.166206 -118.498326 283 4252ft 131kts
26-Sep-18 08:38 34.196338 -118.367565 358 721ft 0kts
26-Sep-18 08:39 34.196338 -118.367565 358 721ft 0kts
26-Sep-18 08:40 34.196338 -118.367565 358 721ft 0kts
26-Sep-18 08:41 34.196918 -118.368263 271 723ft 10kts
26-Sep-18 08:42 34.197031 -118.368873 316 723ft 0kts
26-Sep-18 08:43 34.197952 -118.368351 87 725ft 30kts
26-Sep-18 08:44 34.193993 -118.342750 145 1470ft 90kts
26-Sep-18 08:45 34.173540 -118.356115 225 2475ft 91kts
26-Sep-18 08:46 34.156114 -118.377341 225 3438ft 90kts
26-Sep-18 08:47 34.137933 -118.399614 225 4268ft 97kts
26-Sep-18 08:48 34.121240 -118.420089 225 5280ft 72kts
26-Sep-18 08:49 34.124490 -118.438557 352 5932ft 86kts
26-Sep-18 08:50 34.150110 -118.443126 355 6614ft 87kts
26-Sep-18 08:51 34.171479 -118.445597 4 7391ft 82kts
26-Sep-18 08:52 34.196993 -118.446343 3 7907ft 98kts
26-Sep-18 08:53 34.224597 -118.447785 2 8411ft 101kts
26-Sep-18 08:54 34.252545 -118.450178 0 8915ft 100kts
26-Sep-18 08:55 34.280376 -118.452259 1 9420ft 99kts
26-Sep-18 08:56 34.307782 -118.454161 1 9923ft 98kts
26-Sep-18 08:57 34.334914 -118.455998 2 10427ft 97kts
26-Sep-18 08:58 34.361618 -118.457797 2 10931ft 95kts
26-Sep-18 08:59 34.387699 -118.449455 54 11026ft 110kts
26-Sep-18 09:00 34.407006 -118.419382 55 11029ft 114kts
26-Sep-18 09:01 34.426341 -118.388755 56 11037ft 114kts
26-Sep-18 09:02 34.445628 -118.358049 56 11048ft 114kts
26-Sep-18 09:03 34.464918 -118.327270 56 11061ft 115kts
26-Sep-18 09:04 34.484231 -118.296429 55 11076ft 114kts
26-Sep-18 09:05 34.503484 -118.265646 55 11089ft 114kts
26-Sep-18 09:06 34.522824 -118.234707 57 11100ft 116kts
26-Sep-18 09:07 34.542468 -118.203207 57 11108ft 117kts
26-Sep-18 09:08 34.562202 -118.171548 57 11113ft 117kts
26-Sep-18 09:09 34.581985 -118.139802 57 11113ft 118kts
26-Sep-18 09:10 34.601709 -118.108105 57 11113ft 118kts
26-Sep-18 09:11 34.621506 -118.076271 57 11113ft 118kts
26-Sep-18 09:12 34.631902 -118.040308 84 11113ft 114kts
26-Sep-18 09:13 34.636269 -118.001962 82 11056ft 113kts
26-Sep-18 09:14 34.640431 -117.964382 82 11056ft 112kts
26-Sep-18 09:15 34.644534 -117.926741 82 11055ft 112kts
26-Sep-18 09:16 34.648604 -117.889143 82 11054ft 112kts
26-Sep-18 09:17 34.652649 -117.851630 82 11070ft 111kts
26-Sep-18 09:18 34.656673 -117.814184 82 11065ft 112kts
26-Sep-18 09:19 34.660691 -117.776672 82 11067ft 112kts
26-Sep-18 09:20 34.668111 -117.739941 73 11069ft 112kts
26-Sep-18 09:21 34.677370 -117.703713 73 11071ft 112kts
26-Sep-18 09:22 34.686607 -117.667574 73 11073ft 112kts
26-Sep-18 09:23 34.694332 -117.637330 73 11075ft 112kts
26-Sep-18 09:24 34.705102 -117.595108 73 11077ft 112kts
26-Sep-18 09:25 34.712779 -117.564969 73 11077ft 112kts
26-Sep-18 09:26 34.723528 -117.522707 73 11077ft 112kts
26-Sep-18 09:27 34.732721 -117.486504 73 11076ft 112kts
26-Sep-18 09:28 34.740385 -117.456288 73 11076ft 112kts
26-Sep-18 09:29 34.749576 -117.420003 73 11076ft 112kts
26-Sep-18 09:30 34.758759 -117.383701 73 11076ft 112kts
26-Sep-18 09:31 34.767791 -117.347947 74 11077ft 112kts
26-Sep-18 09:32 34.776974 -117.311542 74 11076ft 112kts
26-Sep-18 09:33 34.786154 -117.275093 74 11072ft 112kts
26-Sep-18 09:34 34.795317 -117.238662 73 11067ft 112kts
26-Sep-18 09:35 34.804487 -117.202150 73 11061ft 112kts
26-Sep-18 09:36 34.813628 -117.165701 73 11054ft 112kts
26-Sep-18 09:37 34.822744 -117.129300 73 11046ft 112kts
26-Sep-18 09:38 34.831813 -117.093034 73 11039ft 112kts
26-Sep-18 09:39 34.840879 -117.056735 73 11034ft 111kts
26-Sep-18 09:40 34.849861 -117.020723 73 11030ft 111kts
26-Sep-18 09:41 34.858829 -116.984718 72 11027ft 110kts
26-Sep-18 09:42 34.867741 -116.948886 72 11024ft 110kts
26-Sep-18 09:43 34.876621 -116.913139 72 11023ft 110kts
26-Sep-18 09:44 34.885448 -116.877548 72 11023ft 110kts
26-Sep-18 09:45 34.894304 -116.841799 71 11023ft 110kts
26-Sep-18 09:46 34.903162 -116.805984 71 11022ft 111kts
26-Sep-18 09:47 34.912071 -116.769908 71 11022ft 111kts
26-Sep-18 09:48 34.921041 -116.733536 71 11022ft 112kts
26-Sep-18 09:49 34.930053 -116.696940 71 11022ft 113kts
26-Sep-18 09:50 34.939087 -116.660203 71 11022ft 113kts
26-Sep-18 09:51 34.948179 -116.623176 71 11023ft 114kts
26-Sep-18 09:52 34.957318 -116.585903 71 11026ft 115kts
26-Sep-18 09:53 34.971176 -116.550763 62 11030ft 116kts
26-Sep-18 09:54 34.986586 -116.515933 61 11035ft 117kts
26-Sep-18 09:55 35.002116 -116.480877 61 11040ft 118kts
26-Sep-18 09:56 35.017813 -116.445428 61 11047ft 119kts
26-Sep-18 09:57 35.033590 -116.409770 60 11055ft 120kts
26-Sep-18 09:58 35.049627 -116.373511 60 11052ft 121kts
26-Sep-18 09:59 35.066174 -116.336040 61 10853ft 128kts
26-Sep-18 10:00 35.083698 -116.296318 61 10441ft 137kts
26-Sep-18 10:01 35.101743 -116.255349 61 10063ft 131kts
26-Sep-18 10:02 35.118314 -116.217730 61 10068ft 124kts
26-Sep-18 10:03 35.134554 -116.180807 61 10059ft 123kts
26-Sep-18 10:04 35.150817 -116.143784 61 10060ft 123kts
26-Sep-18 10:05 35.166992 -116.106916 61 10060ft 123kts
26-Sep-18 10:06 35.183185 -116.069965 61 10060ft 123kts
26-Sep-18 10:07 35.199344 -116.033051 61 10060ft 123kts
26-Sep-18 10:08 35.215485 -115.996138 61 10060ft 123kts
26-Sep-18 10:09 35.231604 -115.959235 61 10060ft 123kts
26-Sep-18 10:10 35.247734 -115.922266 61 10060ft 123kts
26-Sep-18 10:11 35.263874 -115.885234 61 10066ft 123kts
26-Sep-18 10:12 35.279946 -115.848320 61 10073ft 123kts
26-Sep-18 10:13 35.295936 -115.811553 61 10094ft 122kts
26-Sep-18 10:14 35.313644 -115.776349 47 10100ft 122kts
26-Sep-18 10:15 35.336565 -115.745565 47 10104ft 122kts
26-Sep-18 10:16 35.359628 -115.714737 47 10109ft 122kts
26-Sep-18 10:17 35.382555 -115.684105 47 10114ft 122kts
26-Sep-18 10:18 35.405600 -115.653301 47 10115ft 122kts
26-Sep-18 10:19 35.428592 -115.622539 47 10115ft 122kts
26-Sep-18 10:20 35.451557 -115.591788 47 10115ft 122kts
26-Sep-18 10:21 35.474550 -115.560972 47 10115ft 122kts
26-Sep-18 10:22 35.497579 -115.530078 47 10115ft 122kts
26-Sep-18 10:23 35.520516 -115.499248 47 10115ft 122kts
26-Sep-18 10:24 35.543436 -115.468396 47 10115ft 122kts
26-Sep-18 10:25 35.566399 -115.437516 47 10115ft 122kts
26-Sep-18 10:26 35.589491 -115.406440 47 10027ft 128kts
26-Sep-18 10:27 35.614095 -115.373281 47 9557ft 143kts
26-Sep-18 10:28 35.642566 -115.337955 45 8561ft 147kts
26-Sep-18 10:29 35.670398 -115.301192 47 7560ft 147kts
26-Sep-18 10:30 35.696985 -115.265342 47 7015ft 130kts
26-Sep-18 10:31 35.720807 -115.233190 47 7017ft 125kts
26-Sep-18 10:32 35.742017 -115.204494 47 7016ft 124kts
26-Sep-18 10:33 35.765312 -115.173216 45 7015ft 124kts
26-Sep-18 10:34 35.794055 -115.150825 22 7012ft 123kts
26-Sep-18 10:35 35.826012 -115.135229 22 7010ft 123kts
26-Sep-18 10:36 35.857916 -115.119805 21 7008ft 123kts
26-Sep-18 10:37 35.889582 -115.104662 21 7006ft 122kts
26-Sep-18 10:38 35.921294 -115.089296 21 7004ft 122kts
26-Sep-18 10:39 35.953742 -115.073353 21 6684ft 139kts
26-Sep-18 10:40 35.990869 -115.055398 20 5680ft 145kts
26-Sep-18 10:41 36.025442 -115.038856 20 5499ft 125kts
26-Sep-18 10:42 36.057771 -115.023431 21 5494ft 124kts
26-Sep-18 10:43 36.090120 -115.008168 21 5490ft 124kts
26-Sep-18 10:44 36.123331 -114.996988 11 5488ft 126kts
26-Sep-18 10:45 36.157374 -114.999517 319 5481ft 131kts
26-Sep-18 10:46 36.178644 -115.036461 290 5480ft 133kts
26-Sep-18 10:47 36.172217 -115.081738 244 5191ft 147kts
26-Sep-18 10:48 36.150326 -115.119963 216 3753ft 134kts
26-Sep-18 10:49 36.120438 -115.143206 206 2497ft 120kts
26-Sep-18 10:50 36.094309 -115.159430 207 2102ft 63kts
26-Sep-18 10:51 36.089227 -115.163086 286 2128ft 0kts
26-Sep-18 10:52 36.089470 -115.163684 297 2129ft 0kts
26-Sep-18 10:53 36.089470 -115.163684 297 2129ft 0kts
26-Sep-18 10:54 36.089387 -115.166915 278 2140ft 0kts
26-Sep-18 10:55 36.089387 -115.166915 278 2140ft 0kts

Navigation Log

Ident Type
Flight plan parsing failed, navigation log unavailable